Terminal Aerodrome Forecast
Issued by NWS Memphis, TN

Home | Current Version | Previous Version | Text Only | Print | Product List | Glossary On
Versions: 1 2 3 4 5 6 7 8 9 10 11 12 13 14 15 16 17 18 19 20 21
000
FTUS44 KMEG 272104 AAA
TAFMEM
TAF AMD
KMEM 272104Z 2721/2818 18007KT 3SM RA BR OVC005
     FM272300 08004KT 5SM -RA BR OVC005
     FM280600 36010KT 4SM -RA BR OVC005
     FM281500 03007KT P6SM OVC005=

USA.gov is the U.S. government's official web portal to all federal, state and local government web resources and services.